sensor_id;sensor_type;location;lat;lon;timestamp;P1;durP1;ratioP1;P2;durP2;ratioP2
28009;SDS011;15334;49.494;8.410;2022-08-19T19:55:33;8.30;;;4.60;;
28009;SDS011;15334;49.494;8.410;2022-08-19T19:58:02;8.18;;;4.47;;
28009;SDS011;15334;49.494;8.410;2022-08-19T20:00:32;8.93;;;4.72;;
28009;SDS011;15334;49.494;8.410;2022-08-19T20:03:00;11.10;;;4.72;;
28009;SDS011;15334;49.494;8.410;2022-08-19T20:05:28;11.32;;;4.78;;
28009;SDS011;15334;49.494;8.410;2022-08-19T20:07:56;9.55;;;4.70;;
28009;SDS011;15334;49.494;8.410;2022-08-19T20:10:45;7.88;;;4.45;;
28009;SDS011;15334;49.494;8.410;2022-08-19T20:13:13;8.07;;;4.90;;
28009;SDS011;15334;49.494;8.410;2022-08-19T20:15:41;7.30;;;4.15;;
28009;SDS011;15334;49.494;8.410;2022-08-19T20:18:10;8.35;;;4.93;;
28009;SDS011;15334;49.494;8.410;2022-08-19T20:20:40;8.45;;;4.63;;
28009;SDS011;15334;49.494;8.410;2022-08-19T20:23:08;8.60;;;4.75;;
28009;SDS011;15334;49.494;8.410;2022-08-19T20:25:36;7.75;;;4.05;;
28009;SDS011;15334;49.494;8.410;2022-08-19T20:28:07;10.50;;;4.97;;
28009;SDS011;15334;49.494;8.410;2022-08-19T20:30:38;8.32;;;4.40;;
28009;SDS011;15334;49.494;8.410;2022-08-19T20:33:11;7.55;;;4.50;;
28009;SDS011;15334;49.494;8.410;2022-08-19T20:35:41;9.13;;;4.60;;
28009;SDS011;15334;49.494;8.410;2022-08-19T20:38:09;8.15;;;4.32;;
28009;SDS011;15334;49.494;8.410;2022-08-19T20:40:38;9.23;;;4.32;;
28009;SDS011;15334;49.494;8.410;2022-08-19T20:43:08;7.63;;;4.32;;
28009;SDS011;15334;49.494;8.410;2022-08-19T20:45:38;7.68;;;3.97;;
28009;SDS011;15334;49.494;8.410;2022-08-19T20:48:07;8.15;;;3.90;;
28009;SDS011;15334;49.494;8.410;2022-08-19T20:50:37;9.25;;;4.93;;
28009;SDS011;15334;49.494;8.410;2022-08-19T20:53:10;9.68;;;4.40;;
28009;SDS011;15334;49.494;8.410;2022-08-19T20:55:41;7.65;;;4.35;;
28009;SDS011;15334;49.494;8.410;2022-08-19T20:58:12;7.10;;;4.70;;
28009;SDS011;15334;49.494;8.410;2022-08-19T21:00:40;8.80;;;4.32;;
28009;SDS011;15334;49.494;8.410;2022-08-19T21:03:15;10.32;;;4.78;;
28009;SDS011;15334;49.494;8.410;2022-08-19T21:05:44;7.90;;;4.72;;
28009;SDS011;15334;49.494;8.410;2022-08-19T21:08:13;8.95;;;4.97;;
28009;SDS011;15334;49.494;8.410;2022-08-19T21:10:43;8.77;;;3.60;;
28009;SDS011;15334;49.494;8.410;2022-08-19T21:13:13;9.73;;;4.18;;
28009;SDS011;15334;49.494;8.410;2022-08-19T21:15:42;8.43;;;4.35;;
28009;SDS011;15334;49.494;8.410;2022-08-19T21:18:11;8.88;;;4.93;;
28009;SDS011;15334;49.494;8.410;2022-08-19T21:20:40;8.10;;;4.00;;
28009;SDS011;15334;49.494;8.410;2022-08-19T21:23:09;8.70;;;4.20;;
28009;SDS011;15334;49.494;8.410;2022-08-19T21:25:40;8.27;;;3.83;;
28009;SDS011;15334;49.494;8.410;2022-08-19T21:28:21;8.25;;;3.97;;
28009;SDS011;15334;49.494;8.410;2022-08-19T21:31:01;5.97;;;3.33;;
28009;SDS011;15334;49.494;8.410;2022-08-19T21:33:30;7.22;;;4.00;;
28009;SDS011;15334;49.494;8.410;2022-08-19T21:35:58;6.32;;;3.40;;
28009;SDS011;15334;49.494;8.410;2022-08-19T21:38:26;8.77;;;3.80;;
28009;SDS011;15334;49.494;8.410;2022-08-19T21:40:55;9.00;;;4.13;;
28009;SDS011;15334;49.494;8.410;2022-08-19T21:43:25;7.78;;;3.67;;
28009;SDS011;15334;49.494;8.410;2022-08-19T21:45:53;8.55;;;4.00;;
28009;SDS011;15334;49.494;8.410;2022-08-19T21:48:21;8.80;;;3.47;;
28009;SDS011;15334;49.494;8.410;2022-08-19T21:50:49;5.90;;;3.53;;
28009;SDS011;15334;49.494;8.410;2022-08-19T21:53:17;6.07;;;3.05;;
28009;SDS011;15334;49.494;8.410;2022-08-19T21:55:48;5.18;;;3.08;;
28009;SDS011;15334;49.494;8.410;2022-08-19T21:58:19;5.40;;;3.53;;
28009;SDS011;15334;49.494;8.410;2022-08-19T22:00:57;7.38;;;2.92;;
28009;SDS011;15334;49.494;8.410;2022-08-19T22:03:27;6.22;;;3.65;;
28009;SDS011;15334;49.494;8.410;2022-08-19T22:05:57;8.52;;;3.67;;
28009;SDS011;15334;49.494;8.410;2022-08-19T22:08:25;6.72;;;3.30;;
28009;SDS011;15334;49.494;8.410;2022-08-19T22:10:53;7.72;;;3.72;;
28009;SDS011;15334;49.494;8.410;2022-08-19T22:13:24;7.53;;;3.80;;
28009;SDS011;15334;49.494;8.410;2022-08-19T22:15:53;6.90;;;3.65;;
28009;SDS011;15334;49.494;8.410;2022-08-19T22:18:23;10.52;;;3.80;;
28009;SDS011;15334;49.494;8.410;2022-08-19T22:20:52;10.43;;;3.47;;
28009;SDS011;15334;49.494;8.410;2022-08-19T22:23:20;7.85;;;3.95;;
28009;SDS011;15334;49.494;8.410;2022-08-19T22:25:48;7.95;;;3.90;;
28009;SDS011;15334;49.494;8.410;2022-08-19T22:28:16;7.78;;;4.15;;
28009;SDS011;15334;49.494;8.410;2022-08-19T22:30:53;7.18;;;3.83;;
28009;SDS011;15334;49.494;8.410;2022-08-19T22:33:24;7.55;;;3.90;;
28009;SDS011;15334;49.494;8.410;2022-08-19T22:35:52;6.38;;;3.22;;
28009;SDS011;15334;49.494;8.410;2022-08-19T22:38:21;8.60;;;3.90;;
28009;SDS011;15334;49.494;8.410;2022-08-19T22:40:50;9.02;;;3.72;;
28009;SDS011;15334;49.494;8.410;2022-08-19T22:43:20;6.80;;;3.75;;
28009;SDS011;15334;49.494;8.410;2022-08-19T22:45:51;7.82;;;3.50;;
28009;SDS011;15334;49.494;8.410;2022-08-19T22:48:22;7.10;;;3.30;;
28009;SDS011;15334;49.494;8.410;2022-08-19T22:50:53;7.32;;;3.95;;
28009;SDS011;15334;49.494;8.410;2022-08-19T22:53:40;7.20;;;3.53;;
28009;SDS011;15334;49.494;8.410;2022-08-19T22:56:10;9.85;;;3.58;;
28009;SDS011;15334;49.494;8.410;2022-08-19T22:58:42;6.63;;;3.22;;
28009;SDS011;15334;49.494;8.410;2022-08-19T23:01:16;6.43;;;3.33;;
28009;SDS011;15334;49.494;8.410;2022-08-19T23:03:57;9.02;;;3.47;;
28009;SDS011;15334;49.494;8.410;2022-08-19T23:06:29;9.88;;;3.47;;
28009;SDS011;15334;49.494;8.410;2022-08-19T23:09:00;6.65;;;3.08;;
28009;SDS011;15334;49.494;8.410;2022-08-19T23:11:30;6.90;;;3.50;;
28009;SDS011;15334;49.494;8.410;2022-08-19T23:14:07;10.23;;;3.35;;
28009;SDS011;15334;49.494;8.410;2022-08-19T23:16:35;7.72;;;3.28;;
28009;SDS011;15334;49.494;8.410;2022-08-19T23:19:06;5.93;;;2.90;;
28009;SDS011;15334;49.494;8.410;2022-08-19T23:21:34;7.47;;;3.22;;
28009;SDS011;15334;49.494;8.410;2022-08-19T23:24:02;7.72;;;3.22;;
28009;SDS011;15334;49.494;8.410;2022-08-19T23:26:31;5.68;;;3.10;;
28009;SDS011;15334;49.494;8.410;2022-08-19T23:29:01;6.03;;;2.95;;
28009;SDS011;15334;49.494;8.410;2022-08-19T23:31:48;6.57;;;3.17;;
28009;SDS011;15334;49.494;8.410;2022-08-19T23:34:17;6.45;;;3.17;;
28009;SDS011;15334;49.494;8.410;2022-08-19T23:36:46;6.70;;;3.45;;
28009;SDS011;15334;49.494;8.410;2022-08-19T23:39:16;11.07;;;2.83;;
28009;SDS011;15334;49.494;8.410;2022-08-19T23:41:44;4.93;;;2.85;;
28009;SDS011;15334;49.494;8.410;2022-08-19T23:44:12;8.32;;;3.22;;
28009;SDS011;15334;49.494;8.410;2022-08-19T23:46:40;5.65;;;2.80;;
28009;SDS011;15334;49.494;8.410;2022-08-19T23:49:21;8.45;;;3.58;;
28009;SDS011;15334;49.494;8.410;2022-08-19T23:51:51;4.40;;;2.63;;
